Terminal Aerodrome Forecast
Issued by NWS

Home | Current Version | Previous Version | Text Only | Print | Product List | Glossary On
Versions: 1 2 3 4 5 6 7 8 9 10 11 12 13 14 15 16
000
FTUS43 KDVN 190500
TAFBRL
TAF
KBRL 190520Z 1906/2006 10006KT P6SM SKC
     FM190900 13004KT 6SM BR SCT003
     FM191500 16009KT P6SM SCT250=

USA.gov is the U.S. government's official web portal to all federal, state and local government web resources and services.